createdAt,value
2018-03-21T00:00:50.416Z,96217.36
2018-03-21T00:02:29.433Z,96183.62
2018-03-21T00:04:08.326Z,96186.20
2018-03-21T00:05:46.321Z,96169.02
2018-03-21T00:07:25.252Z,96122.02
2018-03-21T00:09:03.137Z,96060.50
2018-03-21T00:10:41.357Z,96074.70
2018-03-21T00:12:21.122Z,96103.14
2018-03-21T00:13:59.325Z,96094.92
2018-03-21T00:15:38.025Z,96100.98
2018-03-21T00:17:15.768Z,96093.23
2018-03-21T00:18:54.746Z,96068.19
2018-03-21T00:20:34.065Z,96035.49
2018-03-21T00:22:13.322Z,96038.55
2018-03-21T00:23:51.752Z,96035.53
2018-03-21T00:25:30.424Z,96068.75
2018-03-21T00:27:09.391Z,96087.56
2018-03-21T00:28:47.567Z,96105.77
2018-03-21T00:30:28.410Z,96120.25
2018-03-21T00:32:07.774Z,96157.81
2018-03-21T00:33:45.723Z,96166.00
2018-03-21T00:35:25.596Z,96149.98
2018-03-21T00:37:04.943Z,96168.13
2018-03-21T00:38:43.629Z,96173.23
2018-03-21T00:40:25.109Z,96172.38
2018-03-21T00:42:03.169Z,96151.76
2018-03-21T00:43:47.968Z,96143.99
2018-03-21T00:45:27.447Z,96139.75
2018-03-21T00:47:06.507Z,96147.83
2018-03-21T00:48:45.926Z,96125.08
2018-03-21T00:50:25.492Z,96129.79
2018-03-21T00:52:05.053Z,96139.75
2018-03-21T00:53:43.661Z,96180.25
2018-03-21T00:55:22.723Z,96268.14
2018-03-21T00:57:01.452Z,96311.73
2018-03-21T00:58:40.116Z,96347.49
2018-03-21T01:00:22.807Z,96419.57
2018-03-21T01:02:01.952Z,96404.88
2018-03-21T01:03:40.227Z,96504.15
2018-03-21T01:05:20.351Z,96517.93
2018-03-21T01:06:59.084Z,96541.80
2018-03-21T01:08:38.635Z,96560.34
2018-03-21T01:10:17.083Z,96573.70
2018-03-21T01:11:57.572Z,96502.44
2018-03-21T01:13:36.558Z,96526.17
2018-03-21T01:15:19.489Z,96508.88
2018-03-21T01:16:59.850Z,96590.16
2018-03-21T01:18:41.176Z,96559.92
2018-03-21T01:20:20.099Z,96634.69
2018-03-21T01:22:01.469Z,96574.98
2018-03-21T01:23:41.257Z,96502.41
2018-03-21T01:25:21.102Z,96510.64
2018-03-21T01:28:29.533Z,96469.20
2018-03-21T01:30:07.641Z,96485.58
2018-03-21T01:31:46.305Z,96534.41
2018-03-21T01:33:24.380Z,96583.79
2018-03-21T01:35:02.219Z,96629.50
2018-03-21T01:36:40.631Z,96597.55
2018-03-21T01:38:20.411Z,96676.11
2018-03-21T01:39:58.562Z,96696.94
2018-03-21T01:41:36.315Z,96702.48
2018-03-21T01:43:15.700Z,96665.72
2018-03-21T01:44:53.606Z,96660.92
2018-03-21T01:46:38.947Z,96701.63
2018-03-21T01:48:17.853Z,96707.72
2018-03-21T01:49:55.676Z,96636.75
2018-03-21T01:51:33.212Z,96645.84
2018-03-21T01:53:14.299Z,96636.29
2018-03-21T01:54:51.947Z,96625.16
2018-03-21T01:56:32.626Z,96632.91
2018-03-21T01:58:11.380Z,96606.14
2018-03-21T01:59:49.289Z,96618.73
2018-03-21T02:01:26.837Z,96631.23
2018-03-21T02:03:04.424Z,96629.99
2018-03-21T02:04:42.097Z,96632.91
2018-03-21T02:06:21.862Z,96651.61
2018-03-21T02:07:59.297Z,96655.41
2018-03-21T02:09:36.640Z,96693.45
2018-03-21T02:11:14.702Z,96695.55
2018-03-21T02:12:52.844Z,96695.06
2018-03-21T02:14:31.022Z,96687.41
2018-03-21T02:16:08.902Z,96628.18
2018-03-21T02:17:46.607Z,96559.53
2018-03-21T02:21:06.584Z,96411.87
2018-03-21T02:22:44.370Z,96353.52
2018-03-21T02:24:22.213Z,96316.48
2018-03-21T02:25:59.948Z,96283.74
2018-03-21T02:27:38.330Z,96304.39
2018-03-21T02:29:15.999Z,96328.62
2018-03-21T02:30:53.816Z,96376.88
2018-03-21T02:32:31.620Z,96399.77
2018-03-21T02:34:08.924Z,96394.05
2018-03-21T02:35:49.107Z,96405.38
2018-03-21T02:37:26.691Z,96382.44
2018-03-21T02:39:04.566Z,96329.82
2018-03-21T02:40:41.537Z,96273.36
2018-03-21T02:42:18.720Z,96214.31
2018-03-21T02:43:56.530Z,96178.02
2018-03-21T02:45:34.369Z,96162.99
2018-03-21T02:47:12.052Z,96151.33
2018-03-21T02:48:49.205Z,96172.06
2018-03-21T02:50:26.911Z,96180.29
2018-03-21T02:52:04.516Z,96216.94
2018-03-21T02:53:42.140Z,96262.15
2018-03-21T02:55:20.766Z,96256.12
2018-03-21T02:56:58.841Z,96278.14
2018-03-21T02:58:37.609Z,96278.53
2018-03-21T03:00:16.978Z,96321.27
2018-03-21T03:01:54.760Z,96371.69
2018-03-21T03:03:32.833Z,96461.56
2018-03-21T03:05:09.912Z,96475.14
2018-03-21T03:06:47.260Z,96449.78
2018-03-21T03:08:24.988Z,96408.28
2018-03-21T03:10:02.732Z,96364.42
2018-03-21T03:11:39.963Z,96350.08
2018-03-21T03:13:17.236Z,96311.73
2018-03-21T03:14:54.455Z,96283.67
2018-03-21T03:16:32.201Z,96261.65
2018-03-21T03:18:09.726Z,96247.89
2018-03-21T03:19:47.438Z,96267.29
2018-03-21T03:21:24.850Z,96262.96
2018-03-21T03:23:02.851Z,96255.30
2018-03-21T03:24:40.028Z,96254.34
2018-03-21T03:26:18.216Z,96271.23
2018-03-21T03:27:55.105Z,96289.77
2018-03-21T03:29:32.558Z,96301.77
2018-03-21T03:31:09.960Z,96309.56
2018-03-21T03:32:46.955Z,96298.36
2018-03-21T03:34:24.279Z,96302.19
2018-03-21T03:36:01.722Z,96311.70
2018-03-21T03:37:38.991Z,96345.36
2018-03-21T03:39:16.321Z,96385.11
2018-03-21T03:40:53.308Z,96369.95
2018-03-21T03:42:30.407Z,96389.89
2018-03-21T03:44:07.945Z,96389.83
2018-03-21T03:45:45.303Z,96436.92
2018-03-21T03:47:22.000Z,96457.20
2018-03-21T03:48:59.776Z,96463.16
2018-03-21T03:50:36.651Z,96406.69
2018-03-21T03:52:15.293Z,96381.20
2018-03-21T03:53:54.096Z,96357.42
2018-03-21T03:55:31.783Z,96347.98
2018-03-21T03:57:08.625Z,96332.41
2018-03-21T03:58:45.703Z,96344.12
2018-03-21T04:00:24.250Z,96314.67
2018-03-21T04:02:01.955Z,96282.00
2018-03-21T04:03:39.441Z,96284.56
2018-03-21T04:05:17.061Z,96260.91
2018-03-21T04:06:54.573Z,96234.09
2018-03-21T04:08:32.211Z,96224.67
2018-03-21T04:10:08.896Z,96263.39
2018-03-21T04:11:45.906Z,96236.76
2018-03-21T04:13:23.923Z,96193.27
2018-03-21T04:15:02.049Z,96156.93
2018-03-21T04:16:39.918Z,96152.72
2018-03-21T04:18:17.477Z,96106.66
2018-03-21T04:19:54.433Z,96070.06
2018-03-21T04:21:31.865Z,96021.83
2018-03-21T04:23:09.496Z,96019.25
2018-03-21T04:24:47.439Z,96025.66
2018-03-21T04:26:25.072Z,96044.67
2018-03-21T04:28:02.372Z,96033.88
2018-03-21T04:29:39.302Z,96006.33
2018-03-21T04:31:16.316Z,95976.63
2018-03-21T04:32:53.270Z,95957.84
2018-03-21T04:34:30.855Z,95933.63
2018-03-21T04:36:08.259Z,95895.76
2018-03-21T04:37:45.185Z,95866.05
2018-03-21T04:39:21.961Z,95865.23
2018-03-21T04:40:59.066Z,95831.70
2018-03-21T04:42:35.739Z,95834.36
2018-03-21T04:44:12.402Z,95807.09
2018-03-21T04:45:49.989Z,95811.44
2018-03-21T04:47:27.224Z,95783.09
2018-03-21T04:49:04.570Z,95780.55
2018-03-21T04:50:41.659Z,95720.70
2018-03-21T04:52:18.602Z,95621.07
2018-03-21T04:53:55.951Z,95558.36
2018-03-21T04:55:32.823Z,95512.52
2018-03-21T04:57:09.575Z,95496.28
2018-03-21T04:58:47.339Z,95517.32
2018-03-21T05:00:28.070Z,95566.59
2018-03-21T05:02:06.000Z,95623.73
2018-03-21T05:03:43.349Z,95698.02
2018-03-21T05:05:20.447Z,95746.19
2018-03-21T05:06:57.864Z,95746.19
2018-03-21T05:08:35.224Z,95722.00
2018-03-21T05:10:12.414Z,95729.78
2018-03-21T05:11:50.530Z,95781.81
2018-03-21T05:13:28.286Z,95836.83
2018-03-21T05:15:05.622Z,95851.48
2018-03-21T05:16:43.101Z,95829.63
2018-03-21T05:18:21.463Z,95902.66
2018-03-21T05:19:59.183Z,95983.56
2018-03-21T05:21:36.982Z,96023.56
2018-03-21T05:23:15.550Z,95961.47
2018-03-21T05:24:54.469Z,95876.34
2018-03-21T05:26:31.738Z,95806.78
2018-03-21T05:28:10.225Z,95749.11
2018-03-21T05:29:47.769Z,95678.19
2018-03-21T05:31:26.289Z,95598.30
2018-03-21T05:33:04.130Z,95546.86
2018-03-21T05:34:42.799Z,95502.20
2018-03-21T05:36:21.716Z,95503.02
2018-03-21T05:37:59.208Z,95527.02
2018-03-21T05:39:37.416Z,95566.05
2018-03-21T05:41:15.504Z,95591.98
2018-03-21T05:42:53.819Z,95602.22
2018-03-21T05:44:32.284Z,95547.28
2018-03-21T05:46:10.258Z,95556.32
2018-03-21T05:47:48.138Z,95566.25
2018-03-21T05:49:25.689Z,95536.94
2018-03-21T05:51:03.405Z,95518.09
2018-03-21T05:52:41.147Z,95537.73
2018-03-21T05:54:19.047Z,95605.68
2018-03-21T05:55:56.986Z,95655.05
2018-03-21T05:57:34.531Z,95761.20
2018-03-21T05:59:11.946Z,95828.55
2018-03-21T06:00:49.740Z,95844.92
2018-03-21T06:02:28.350Z,95827.35
2018-03-21T06:04:05.960Z,95854.83
2018-03-21T06:05:43.761Z,95901.24
2018-03-21T06:07:21.858Z,95915.58
2018-03-21T06:09:00.709Z,95880.19
2018-03-21T06:10:38.615Z,95758.13
2018-03-21T06:12:17.631Z,95613.41
2018-03-21T06:13:56.480Z,95496.63
2018-03-21T06:15:35.279Z,95450.77
2018-03-21T06:17:13.298Z,95438.31
2018-03-21T06:18:51.124Z,95387.28
2018-03-21T06:20:29.639Z,95268.17
2018-03-21T06:22:07.857Z,95247.14
2018-03-21T06:23:45.488Z,95141.91
2018-03-21T06:25:23.475Z,95115.83
2018-03-21T06:27:02.014Z,95110.19
2018-03-21T06:28:40.818Z,95126.91
2018-03-21T06:30:21.408Z,95160.75
2018-03-21T06:31:59.520Z,95147.89
2018-03-21T06:33:37.694Z,95160.41
2018-03-21T06:35:17.749Z,95155.94
2018-03-21T06:36:55.804Z,95188.91
2018-03-21T06:38:34.045Z,95188.87
2018-03-21T06:40:11.845Z,95110.52
2018-03-21T06:41:50.189Z,95107.99
2018-03-21T06:43:28.007Z,95097.38
2018-03-21T06:45:05.696Z,95104.12
2018-03-21T06:46:43.842Z,95126.45
2018-03-21T06:48:21.957Z,95080.99
2018-03-21T06:49:59.455Z,95110.60
2018-03-21T06:51:37.455Z,95128.17
2018-03-21T06:53:15.984Z,95149.58
2018-03-21T06:54:55.102Z,95187.69
2018-03-21T06:56:33.471Z,95199.19
2018-03-21T06:58:12.673Z,95160.28
2018-03-21T06:59:50.593Z,95136.19
2018-03-21T07:01:29.240Z,95208.17
2018-03-21T07:03:07.005Z,95265.13
2018-03-21T07:04:44.773Z,95313.14
2018-03-21T07:06:22.921Z,95303.27
2018-03-21T07:08:00.961Z,95353.05
2018-03-21T07:09:39.424Z,95305.80
2018-03-21T07:11:18.124Z,95282.27
2018-03-21T07:12:55.694Z,95313.64
2018-03-21T07:16:51.960Z,95372.33
2018-03-21T07:18:29.810Z,95449.50
2018-03-21T07:20:08.313Z,95413.45
2018-03-21T07:21:46.098Z,95403.07
2018-03-21T07:23:24.667Z,95394.62
2018-03-21T07:25:02.335Z,95416.48
2018-03-21T07:26:46.486Z,95411.72
2018-03-21T07:28:24.284Z,95460.22
2018-03-21T07:30:02.754Z,95514.36
2018-03-21T07:31:42.323Z,95589.36
2018-03-21T07:33:19.817Z,95675.22
2018-03-21T07:34:57.442Z,95654.63
2018-03-21T07:36:35.151Z,95749.16
2018-03-21T07:38:13.399Z,95862.61
2018-03-21T07:39:51.147Z,95883.70
2018-03-21T07:41:28.823Z,95833.75
2018-03-21T07:43:07.433Z,95805.43
2018-03-21T07:44:45.372Z,95858.38
2018-03-21T07:46:23.368Z,95898.45
2018-03-21T07:48:00.903Z,96062.42
2018-03-21T07:49:39.157Z,96115.69
2018-03-21T07:51:17.826Z,96140.70
2018-03-21T07:52:55.476Z,96132.13
2018-03-21T07:54:32.903Z,96074.81
2018-03-21T07:56:10.654Z,95922.09
2018-03-21T07:57:48.214Z,95924.18
2018-03-21T07:59:30.190Z,96036.53
2018-03-21T08:01:08.569Z,96135.56
2018-03-21T08:02:46.008Z,96068.79
2018-03-21T08:04:24.437Z,96086.58
2018-03-21T08:06:01.696Z,96221.77
2018-03-21T08:07:39.114Z,96333.44
2018-03-21T08:09:16.817Z,96285.12
2018-03-21T08:10:54.881Z,96356.39
2018-03-21T08:12:32.323Z,96363.17
2018-03-21T08:14:09.692Z,96383.90
2018-03-21T08:15:47.642Z,96279.06
2018-03-21T08:17:25.064Z,96191.59
2018-03-21T08:19:02.459Z,96140.81
2018-03-21T08:20:42.329Z,96091.71
2018-03-21T08:22:20.532Z,95993.16
2018-03-21T08:23:57.849Z,95926.38
2018-03-21T08:25:35.324Z,95879.06
2018-03-21T08:27:12.500Z,95833.09
2018-03-21T08:28:51.235Z,95847.31
2018-03-21T08:30:30.633Z,95856.64
2018-03-21T08:32:08.142Z,95862.80
2018-03-21T08:35:27.139Z,96032.36
2018-03-21T08:37:04.250Z,96066.73
2018-03-21T08:38:42.526Z,96101.59
2018-03-21T08:40:19.876Z,96125.76
2018-03-21T08:41:57.626Z,96098.19
2018-03-21T08:43:35.772Z,96072.83
2018-03-21T08:45:13.261Z,96076.73
2018-03-21T08:46:52.343Z,96191.25
2018-03-21T08:48:30.251Z,96236.44
2018-03-21T08:50:07.549Z,96284.38
2018-03-21T08:51:45.130Z,96308.08
2018-03-21T08:53:22.461Z,96343.45
2018-03-21T08:55:01.136Z,96266.27
2018-03-21T08:56:39.384Z,96349.13
2018-03-21T08:58:16.782Z,96403.87
2018-03-21T08:59:55.022Z,96421.16
2018-03-21T09:01:32.826Z,96419.92
2018-03-21T09:03:11.361Z,96562.00
2018-03-21T09:04:48.811Z,96660.95
2018-03-21T09:06:26.050Z,96662.58
2018-03-21T09:08:04.969Z,96580.13
2018-03-21T09:09:42.594Z,96474.20
2018-03-21T09:11:19.884Z,96417.30
2018-03-21T09:12:57.078Z,96246.91
2018-03-21T09:14:34.216Z,96048.94
2018-03-21T09:16:12.823Z,96069.16
2018-03-21T09:17:50.031Z,96160.84
2018-03-21T09:19:28.233Z,96249.56
2018-03-21T09:21:06.788Z,96273.75
2018-03-21T09:22:43.968Z,96253.53
2018-03-21T09:24:21.171Z,96203.05
2018-03-21T09:25:58.889Z,96205.22
2018-03-21T09:27:36.673Z,96347.14
2018-03-21T09:29:13.805Z,96474.88
2018-03-21T09:30:51.408Z,96469.63
2018-03-21T09:32:28.618Z,96557.31
2018-03-21T09:34:06.533Z,96636.88
2018-03-21T09:35:47.445Z,96768.23
2018-03-21T09:37:25.586Z,96628.17
2018-03-21T09:39:02.803Z,96530.14
2018-03-21T09:40:40.324Z,96582.89
2018-03-21T09:42:18.206Z,96684.83
2018-03-21T09:43:55.418Z,96558.20
2018-03-21T09:45:34.269Z,96523.70
2018-03-21T09:47:11.782Z,96523.60
2018-03-21T09:48:49.210Z,96703.89
2018-03-21T09:50:26.562Z,96797.75
2018-03-21T09:52:03.749Z,96876.48
2018-03-21T09:53:42.071Z,96856.12
2018-03-21T09:55:20.503Z,96730.27
2018-03-21T09:58:37.326Z,96791.67
2018-03-21T10:00:17.266Z,96896.48
2018-03-21T10:01:55.264Z,96807.29
2018-03-21T10:03:33.194Z,96801.70
2018-03-21T10:05:10.732Z,96840.17
2018-03-21T10:06:49.304Z,96748.05
2018-03-21T10:08:30.153Z,96835.47
2018-03-21T10:10:08.300Z,96905.53
2018-03-21T10:11:46.476Z,96957.64
2018-03-21T10:13:25.147Z,96724.23
2018-03-21T10:15:03.502Z,96565.66
2018-03-21T10:16:41.446Z,96703.50
2018-03-21T10:18:18.757Z,96787.80
2018-03-21T10:19:56.426Z,96887.33
2018-03-21T10:21:34.036Z,96968.02
2018-03-21T10:23:12.049Z,96989.60
2018-03-21T10:24:49.154Z,97012.13
2018-03-21T10:26:27.509Z,97029.04
2018-03-21T10:28:05.603Z,97058.94
2018-03-21T10:29:42.953Z,97107.95
2018-03-21T10:31:20.419Z,97151.33
2018-03-21T10:32:58.329Z,97153.54
2018-03-21T10:34:36.022Z,97125.30
2018-03-21T10:36:13.305Z,97056.77
2018-03-21T10:37:50.719Z,96911.28
2018-03-21T10:39:28.969Z,96839.91
2018-03-21T10:41:07.512Z,96929.91
2018-03-21T10:42:44.820Z,96779.71
2018-03-21T10:44:23.568Z,96685.89
2018-03-21T10:46:01.141Z,96816.99
2018-03-21T10:47:38.235Z,96924.80
2018-03-21T10:49:15.686Z,97070.80
2018-03-21T10:50:53.480Z,97107.61
2018-03-21T10:52:38.912Z,97149.68
2018-03-21T10:54:08.492Z,97134.95
2018-03-21T10:55:45.538Z,97124.91
2018-03-21T10:57:23.483Z,97047.34
2018-03-21T10:59:00.935Z,96907.01
2018-03-21T11:00:38.433Z,96749.14
2018-03-21T11:02:15.761Z,96795.75
2018-03-21T11:03:57.051Z,96941.75
2018-03-21T11:05:34.483Z,97026.14
2018-03-21T11:07:14.185Z,97007.18
2018-03-21T11:08:52.584Z,97138.91
2018-03-21T11:10:30.240Z,97099.94
2018-03-21T11:12:07.641Z,96989.90
2018-03-21T11:13:45.837Z,96972.19
2018-03-21T11:15:26.674Z,97127.34
2018-03-21T11:17:04.729Z,97269.89
2018-03-21T11:18:42.657Z,97317.64
2018-03-21T11:20:20.595Z,97349.34
2018-03-21T11:21:57.757Z,97344.55
2018-03-21T11:23:35.223Z,97322.42
2018-03-21T11:25:12.883Z,97257.33
2018-03-21T11:26:51.048Z,97302.06
2018-03-21T11:28:29.403Z,97316.75
2018-03-21T11:30:07.306Z,97326.77
2018-03-21T11:31:45.522Z,97291.64
2018-03-21T11:33:23.776Z,97262.13
2018-03-21T11:35:01.180Z,97224.39
2018-03-21T11:36:39.705Z,97160.72
2018-03-21T11:38:17.019Z,97156.80
2018-03-21T11:39:54.255Z,97193.17
2018-03-21T11:41:32.297Z,97233.55
2018-03-21T11:43:09.997Z,97350.75
2018-03-21T11:44:47.700Z,97416.70
2018-03-21T11:46:25.211Z,97387.60
2018-03-21T11:48:03.051Z,97285.64
2018-03-21T11:49:42.501Z,97230.19
2018-03-21T11:51:23.267Z,97155.55
2018-03-21T11:53:00.526Z,97168.13
2018-03-21T11:54:38.531Z,97145.98
2018-03-21T11:56:15.676Z,97124.34
2018-03-21T11:57:52.676Z,97066.25
2018-03-21T11:59:30.599Z,97093.15
2018-03-21T12:01:08.051Z,97091.41
2018-03-21T12:02:45.476Z,97089.20
2018-03-21T12:04:22.606Z,97158.20
2018-03-21T12:06:00.740Z,97222.73
2018-03-21T12:07:38.081Z,97275.65
2018-03-21T12:09:15.877Z,97321.25
2018-03-21T12:10:52.809Z,97383.80
2018-03-21T12:12:30.544Z,97447.63
2018-03-21T12:14:07.873Z,97489.81
2018-03-21T12:15:45.053Z,97460.70
2018-03-21T12:17:22.083Z,97384.59
2018-03-21T12:18:59.083Z,97360.31
2018-03-21T12:20:36.907Z,97384.69
2018-03-21T12:22:14.283Z,97446.86
2018-03-21T12:23:51.277Z,97311.30
2018-03-21T12:25:28.437Z,97359.12
2018-03-21T12:27:06.280Z,97298.80
2018-03-21T12:28:43.309Z,97337.41
2018-03-21T12:30:20.875Z,97332.63
2018-03-21T12:31:57.975Z,97510.28
2018-03-21T12:33:35.074Z,97644.59
2018-03-21T12:35:12.865Z,97584.56
2018-03-21T12:36:49.810Z,97556.81
2018-03-21T12:38:27.886Z,97607.69
2018-03-21T12:40:05.352Z,97551.53
2018-03-21T12:41:42.449Z,97472.97
2018-03-21T12:43:19.587Z,97645.06
2018-03-21T12:44:56.606Z,97712.49
2018-03-21T12:46:35.167Z,97855.80
2018-03-21T12:48:12.178Z,97917.23
2018-03-21T12:49:49.414Z,97908.41
2018-03-21T12:51:26.751Z,97936.43
2018-03-21T12:53:05.088Z,98010.08
2018-03-21T12:54:42.173Z,97830.55
2018-03-21T12:56:19.886Z,97949.96
2018-03-21T12:57:57.576Z,98012.26
2018-03-21T12:59:34.941Z,97963.88
2018-03-21T13:01:12.431Z,97938.67
2018-03-21T13:02:49.830Z,97932.95
2018-03-21T13:04:27.247Z,97886.38
2018-03-21T13:06:04.810Z,97900.70
2018-03-21T13:07:42.014Z,97983.55
2018-03-21T13:09:18.960Z,98062.90
2018-03-21T13:10:56.820Z,98095.20
2018-03-21T13:12:34.353Z,98033.73
2018-03-21T13:14:15.232Z,97976.98
2018-03-21T13:15:53.023Z,97854.08
2018-03-21T13:17:31.844Z,97836.27
2018-03-21T13:19:10.205Z,97801.38
2018-03-21T13:20:47.241Z,97899.05
2018-03-21T13:22:24.299Z,97996.24
2018-03-21T13:24:02.325Z,98000.59
2018-03-21T13:25:40.077Z,97967.78
2018-03-21T13:27:17.310Z,97972.23
2018-03-21T13:28:55.188Z,97996.24
2018-03-21T13:30:32.307Z,98038.58
2018-03-21T13:32:11.226Z,97971.81
2018-03-21T13:33:48.205Z,98050.73
2018-03-21T13:35:29.520Z,98013.73
2018-03-21T13:37:07.553Z,97978.84
2018-03-21T13:38:45.319Z,98018.01
2018-03-21T13:40:22.293Z,97967.96
2018-03-21T13:41:59.577Z,97936.57
2018-03-21T13:43:36.488Z,97914.79
2018-03-21T13:45:16.595Z,97872.53
2018-03-21T13:46:53.906Z,97778.98
2018-03-21T13:48:30.940Z,97904.84
2018-03-21T13:50:16.344Z,98022.09
2018-03-21T13:51:53.740Z,98057.41
2018-03-21T13:53:31.547Z,98194.87
2018-03-21T13:55:09.553Z,98229.28
2018-03-21T13:56:46.877Z,98280.36
2018-03-21T13:58:24.482Z,98153.78
2018-03-21T14:00:02.712Z,98213.10
2018-03-21T14:01:40.970Z,98222.75
2018-03-21T14:03:18.764Z,98175.62
2018-03-21T14:04:59.478Z,98078.31
2018-03-21T14:06:36.557Z,98105.36
2018-03-21T14:08:13.678Z,98148.19
2018-03-21T14:09:51.511Z,98160.42
2018-03-21T14:11:28.973Z,98271.23
2018-03-21T14:13:06.143Z,98236.70
2018-03-21T14:14:44.091Z,98241.52
2018-03-21T14:16:21.751Z,98166.53
2018-03-21T14:18:00.228Z,98143.42
2018-03-21T14:19:38.870Z,98225.87
2018-03-21T14:21:16.497Z,98155.62
2018-03-21T14:22:53.681Z,97798.16
2018-03-21T14:24:31.317Z,97691.59
2018-03-21T14:26:08.916Z,97655.03
2018-03-21T14:27:46.592Z,97596.78
2018-03-21T14:29:24.479Z,97640.69
2018-03-21T14:31:01.734Z,97910.59
2018-03-21T14:32:40.719Z,98097.95
2018-03-21T14:34:18.673Z,98095.77
2018-03-21T14:35:56.591Z,98085.36
2018-03-21T14:37:34.360Z,98211.92
2018-03-21T14:39:11.771Z,98283.12
2018-03-21T14:40:52.255Z,98297.47
2018-03-21T14:42:29.551Z,98296.17
2018-03-21T14:44:07.565Z,98254.70
2018-03-21T14:45:44.706Z,98269.98
2018-03-21T14:47:21.873Z,98337.67
2018-03-21T14:48:59.788Z,98332.00
2018-03-21T14:50:37.864Z,98387.55
2018-03-21T14:52:17.143Z,98411.97
2018-03-21T14:53:54.596Z,98444.80
2018-03-21T14:55:32.205Z,98531.38
2018-03-21T14:57:09.266Z,98559.28
2018-03-21T14:58:46.317Z,98513.45
2018-03-21T15:00:27.191Z,98490.26
2018-03-21T15:02:06.853Z,98528.32
2018-03-21T15:03:44.327Z,98551.05
2018-03-21T15:05:21.298Z,98458.83
2018-03-21T15:06:58.713Z,98495.56
2018-03-21T15:08:37.195Z,98547.10
2018-03-21T15:10:14.346Z,98484.14
2018-03-21T15:11:51.473Z,98352.19
2018-03-21T15:13:28.551Z,98307.60
2018-03-21T15:15:06.058Z,98305.44
2018-03-21T15:16:43.759Z,98314.66
2018-03-21T15:18:20.736Z,98246.92
2018-03-21T15:19:57.822Z,98274.45
2018-03-21T15:21:35.690Z,98389.36
2018-03-21T15:23:12.746Z,98411.61
2018-03-21T15:24:50.024Z,98284.94
2018-03-21T15:26:27.564Z,98417.29
2018-03-21T15:28:04.925Z,98496.45
2018-03-21T15:29:42.899Z,98411.61
2018-03-21T15:31:20.726Z,98527.48
2018-03-21T15:32:57.910Z,98600.97
2018-03-21T15:34:37.148Z,98639.97
2018-03-21T15:36:14.232Z,98672.34
2018-03-21T15:37:51.108Z,98620.24
2018-03-21T15:39:28.095Z,98674.53
2018-03-21T15:41:05.594Z,98711.30
2018-03-21T15:42:42.830Z,98648.23
2018-03-21T15:44:20.763Z,98654.33
2018-03-21T15:45:59.560Z,98734.91
2018-03-21T15:47:38.447Z,98755.95
2018-03-21T15:49:19.943Z,98713.48
2018-03-21T15:50:57.793Z,98694.27
2018-03-21T15:52:35.480Z,98693.38
2018-03-21T15:54:13.003Z,98672.77
2018-03-21T15:55:50.981Z,98399.02
2018-03-21T15:57:27.975Z,98363.66
2018-03-21T16:00:42.131Z,98463.26
2018-03-21T16:02:19.166Z,98551.13
2018-03-21T16:03:56.211Z,98601.89
2018-03-21T16:05:33.100Z,98654.46
2018-03-21T16:07:12.638Z,98675.45
2018-03-21T16:08:50.284Z,98767.82
2018-03-21T16:10:27.373Z,98784.87
2018-03-21T16:12:04.470Z,98783.11
2018-03-21T16:13:41.950Z,98634.73
2018-03-21T16:15:20.581Z,98604.56
2018-03-21T16:16:58.307Z,98718.78
2018-03-21T16:18:35.477Z,98648.31
2018-03-21T16:20:13.738Z,98489.95
2018-03-21T16:21:50.635Z,98563.85
2018-03-21T16:23:27.642Z,98647.42
2018-03-21T16:25:05.269Z,98541.96
2018-03-21T16:26:46.248Z,98586.62
2018-03-21T16:28:24.202Z,98631.69
2018-03-21T16:30:02.156Z,98622.51
2018-03-21T16:31:39.393Z,98640.48
2018-03-21T16:33:17.479Z,98623.78
2018-03-21T16:34:55.683Z,98591.92
2018-03-21T16:36:33.521Z,98678.51
2018-03-21T16:38:11.353Z,98645.64
2018-03-21T16:39:48.644Z,98662.72
2018-03-21T16:41:25.618Z,98693.35
2018-03-21T16:43:02.601Z,98698.22
2018-03-21T16:44:39.586Z,98539.36
2018-03-21T16:46:18.485Z,98596.23
2018-03-21T16:47:55.851Z,98420.04
2018-03-21T16:49:32.792Z,98347.02
2018-03-21T16:51:10.471Z,98316.52
2018-03-21T16:52:48.670Z,98293.80
2018-03-21T16:54:26.032Z,98416.59
2018-03-21T16:56:03.334Z,98529.70
2018-03-21T16:57:40.954Z,98564.77
2018-03-21T16:59:18.310Z,98572.19
2018-03-21T17:00:55.731Z,98622.53
2018-03-21T17:02:32.770Z,98683.79
2018-03-21T17:04:09.671Z,98724.94
2018-03-21T17:05:48.431Z,98745.09
2018-03-21T17:07:25.479Z,98798.11
2018-03-21T17:09:02.585Z,98766.52
2018-03-21T17:10:39.802Z,98731.13
2018-03-21T17:12:17.372Z,98679.05
2018-03-21T17:13:54.439Z,98750.83
2018-03-21T17:15:31.751Z,98731.11
2018-03-21T17:17:08.821Z,98759.09
2018-03-21T17:18:47.168Z,98661.50
2018-03-21T17:20:24.173Z,98732.87
2018-03-21T17:22:02.738Z,98760.39
2018-03-21T17:23:41.059Z,98762.17
2018-03-21T17:25:18.074Z,98758.28
2018-03-21T17:26:55.458Z,98782.31
2018-03-21T17:28:34.165Z,98799.80
2018-03-21T17:30:12.377Z,98752.97
2018-03-21T17:31:50.134Z,98695.16
2018-03-21T17:33:26.852Z,98647.88
2018-03-21T17:35:03.835Z,98626.03
2018-03-21T17:36:41.633Z,98555.52
2018-03-21T17:38:20.797Z,98457.23
2018-03-21T17:39:58.142Z,98303.92
2018-03-21T17:41:35.160Z,98282.48
2018-03-21T17:43:12.217Z,98293.44
2018-03-21T17:44:50.364Z,98396.44
2018-03-21T17:46:27.890Z,98510.52
2018-03-21T17:48:05.425Z,98555.08
2018-03-21T17:49:42.582Z,98517.93
2018-03-21T17:51:19.871Z,98467.69
2018-03-21T17:52:56.909Z,98532.34
2018-03-21T17:54:33.941Z,98583.55
2018-03-21T17:56:11.756Z,98629.55
2018-03-21T17:57:49.183Z,98542.42
2018-03-21T17:59:26.026Z,98455.02
2018-03-21T18:01:07.169Z,98290.28
2018-03-21T18:02:45.073Z,98271.13
2018-03-21T18:04:22.622Z,98321.41
2018-03-21T18:05:59.612Z,98458.14
2018-03-21T18:07:37.363Z,98571.80
2018-03-21T18:09:14.329Z,98614.25
2018-03-21T18:10:51.416Z,98515.36
2018-03-21T18:12:28.478Z,98301.25
2018-03-21T18:14:05.636Z,98172.53
2018-03-21T18:15:42.720Z,98076.09
2018-03-21T18:17:20.728Z,98069.99
2018-03-21T18:18:57.828Z,98017.23
2018-03-21T18:20:35.007Z,97979.73
2018-03-21T18:22:12.078Z,98045.58
2018-03-21T18:23:49.563Z,98171.23
2018-03-21T18:25:26.755Z,98144.16
2018-03-21T18:27:03.664Z,98244.03
2018-03-21T18:28:40.626Z,98398.28
2018-03-21T18:30:19.961Z,98345.38
2018-03-21T18:31:57.329Z,98335.33
2018-03-21T18:33:34.246Z,98341.87
2018-03-21T18:35:11.240Z,98381.62
2018-03-21T18:36:49.521Z,98376.90
2018-03-21T18:38:26.499Z,98266.75
2018-03-21T18:40:05.438Z,98343.67
2018-03-21T18:41:42.789Z,98420.04
2018-03-21T18:43:21.100Z,98444.16
2018-03-21T18:44:58.453Z,98372.46
2018-03-21T18:46:35.838Z,98264.63
2018-03-21T18:48:12.828Z,98404.81
2018-03-21T18:49:50.045Z,98530.67
2018-03-21T18:51:27.061Z,98573.52
2018-03-21T18:53:04.134Z,98600.66
2018-03-21T18:54:41.222Z,98616.02
2018-03-21T18:56:18.386Z,98587.98
2018-03-21T18:57:55.625Z,98619.05
2018-03-21T18:59:32.730Z,98641.84
2018-03-21T19:01:09.826Z,98651.86
2018-03-21T19:02:47.894Z,98602.39
2018-03-21T19:04:25.158Z,98540.71
2018-03-21T19:06:02.056Z,98544.23
2018-03-21T19:07:39.200Z,98451.11
2018-03-21T19:09:16.670Z,98479.05
2018-03-21T19:10:53.579Z,98517.06
2018-03-21T19:12:30.717Z,98511.86
2018-03-21T19:14:07.826Z,98510.14
2018-03-21T19:15:45.441Z,98511.41
2018-03-21T19:17:22.498Z,98497.88
2018-03-21T19:19:00.514Z,98504.00
2018-03-21T19:20:38.158Z,98495.66